Pasadena, MD

5:23 PM EDT on August 24, 2016 (GMT -0400)
Old Water Oak Point Road | | Change Station

Elev 43 ft 39.14 °N, 76.51 °W | Updated 3 hours ago

Mostly Cloudy
Mostly Cloudy
83.5 °F
Feels Like 87 °F
N
3.0
Wind Variable Wind from SE
Gusts 9.0 mph

Today
High -- | Low -- °F
--% Chance of Precip.
Yesterday
High -- | Low -- °F
Precip. -- in
Pressure 30.18 in
Visibility 10.0 miles
Clouds Few 5000 ft
Scattered Clouds 16000 ft
Mostly Cloudy 25000 ft
Heat Index 87 °F
Dew Point 69 °F
Humidity 62%
Rainfall 0.00 in
Snow Depth Not available.
6:27 AM 7:47 PM
Waning Gibbous, 53% visible
METAR KBWI 242054Z VRB05KT 10SM FEW050 SCT160 BKN250 29/17 A3018 RMK AO2 SLP219 T02890172 56021
Pressure 30.18 in
Visibility 10.0 miles
Clouds Few 5000 ft
Scattered Clouds 16000 ft
Mostly Cloudy 25000 ft
Heat Index 87 °F
Dew Point 69 °F
Humidity 62%
Rainfall 0.00 in
Snow Depth Not available.
6:27 AM 7:47 PM
Waning Gibbous, 53% visible
METAR KBWI 242054Z VRB05KT 10SM FEW050 SCT160 BKN250 29/17 A3018 RMK AO2 SLP219 T02890172 56021

10-Day Weather Forecast

Almanac

Astronomy

Aug. 24, 2016 Rise Set
Actual Time
Civil Twilight
Nautical Twilight
Astronomical Twilight
Moon
Length of Visible Light
Length of Day
Tomorrow will be .
, % of the Moon is Illuminated

Today's Extremes

State Highs State Lows

Community

WunderPhotos

Upload Photos

1,934,719 photos uploaded!

WunderBlog® & News

Nearby

Air Quality

  Air Quality AQ Index Pollutant
Not available.

Snow Depth

Station Depth Elevation

Earthquake Activity

City Distance Mag. Time & Date
Minimum magnitude displayed is 2.5.

Coastal Water Temperatures

Place Temperature

Stations

Nearby Weather Stations

Station Location Temp. Windchill Dew Point Humidity Wind Precip. Elev Updated Type
                   

Watches & Warnings

There are currently no watches in effect.